Στοιχεία αεροπορικών μετεωρολογικών δεδομένων METAR     EFOU Oulu Airport
θερμοκρασία
22°C θερμοκρασία
0°C Σημείο δρόσου
23% Υγρασία



Ανεμος
8 M/S
17 MPH
27 KM/H
15 KTS



130°
NA
Τρέχουσες συνθήκες

Σαφή Σαφή
πίεση 1006.92 (hPa) - 29.73 (inHg)
Ορατότητα 6.2 (μίλι) - 10 (km)
Aεροδρόμιο
Κωδικός αεροδρομίου EFOU

Τοποθεσία: Oulu Airport
Απόσταση: 83 (km)

Metar:
EFOU 251620Z AUTO 13015KT CAVOK 22/M00 Q1007

ώρα: 25-05-2022 19:20 EEST